Time;durP1;ratioP1;P1;durP2;ratioP2;P2;SDS_P1;SDS_P2;PMS_P1;PMS_P2;Temp;Humidity;BMP_temperature;BMP_pressure;BME280_temperature;BME280_humidity;BME280_pressure;Samples;Min_cycle;Max_cycle;Signal;HPM_P1;HPM_P2
2021/11/08 00:01:05;;;;;;;18.90;5.20;;;7.00;99.90;;;;;;5079530;28;20215;-62
2021/11/08 00:03:36;;;;;;;30.63;6.67;;;6.90;99.90;;;;;;5061802;28;20204;-61
2021/11/08 00:06:05;;;;;;;29.20;6.17;;;6.90;99.90;;;;;;5064420;28;20235;-61
2021/11/08 00:08:35;;;;;;;25.60;5.50;;;6.90;99.90;;;;;;5062872;28;20805;-61
2021/11/08 00:11:04;;;;;;;20.23;5.67;;;6.80;99.90;;;;;;5042390;28;20189;-61
2021/11/08 00:13:33;;;;;;;30.07;5.73;;;6.80;99.90;;;;;;5060109;28;20219;-61
2021/11/08 00:16:11;;;;;;;30.43;6.03;;;6.80;99.90;;;;;;5056903;28;20567;-61
2021/11/08 00:18:45;;;;;;;24.57;5.10;;;6.70;99.90;;;;;;5059603;28;20633;-61
2021/11/08 00:21:17;;;;;;;17.60;4.90;;;6.60;99.90;;;;;;5064017;28;20473;-62
2021/11/08 00:23:46;;;;;;;25.30;5.10;;;6.50;99.90;;;;;;5077760;28;20662;-61
2021/11/08 00:26:15;;;;;;;23.53;5.67;;;6.50;99.90;;;;;;5061442;28;20203;-62
2021/11/08 00:28:43;;;;;;;33.30;5.50;;;6.50;99.90;;;;;;5066931;28;20538;-61
2021/11/08 00:31:13;;;;;;;22.47;5.20;;;6.40;99.90;;;;;;5060090;28;20674;-61
2021/11/08 00:33:42;;;;;;;18.40;5.63;;;6.40;99.90;;;;;;5072428;28;20224;-61
2021/11/08 00:36:11;;;;;;;28.53;6.20;;;6.50;99.90;;;;;;5057649;28;20208;-61
2021/11/08 00:38:39;;;;;;;21.50;5.20;;;6.50;99.90;;;;;;5067585;28;20230;-61
2021/11/08 00:41:08;;;;;;;27.67;5.53;;;6.40;99.90;;;;;;5065523;28;20896;-61
2021/11/08 00:43:36;;;;;;;22.67;4.73;;;6.50;99.90;;;;;;5040367;28;20221;-61
2021/11/08 00:46:05;;;;;;;25.40;5.87;;;6.40;99.90;;;;;;5054781;28;20733;-61
2021/11/08 00:48:37;;;;;;;23.70;5.10;;;6.30;99.90;;;;;;5063425;28;20192;-61
2021/11/08 00:51:06;;;;;;;27.93;6.27;;;6.30;99.90;;;;;;5058841;28;20697;-61
2021/11/08 00:53:35;;;;;;;20.67;5.70;;;6.30;99.90;;;;;;5055130;28;20205;-61
2021/11/08 00:56:08;;;;;;;26.90;5.70;;;6.30;99.90;;;;;;5063952;28;20650;-61
2021/11/08 00:58:38;;;;;;;22.50;5.30;;;6.30;99.90;;;;;;5060235;28;20687;-61
2021/11/08 01:01:08;;;;;;;22.87;4.93;;;6.20;99.90;;;;;;5062641;28;20224;-61
2021/11/08 01:04:20;;;;;;;23.17;5.20;;;6.30;99.90;;;;;;5063551;28;20196;-61
2021/11/08 01:07:26;;;;;;;37.40;5.93;;;6.30;99.90;;;;;;5064730;28;20208;-61
2021/11/08 01:09:55;;;;;;;23.43;5.20;;;6.30;99.90;;;;;;5043888;28;20185;-61
2021/11/08 01:12:25;;;;;;;20.67;5.00;;;6.30;99.90;;;;;;5062083;28;20199;-61
2021/11/08 01:14:54;;;;;;;33.97;5.90;;;6.30;99.90;;;;;;5060839;28;20196;-61
2021/11/08 01:17:23;;;;;;;31.63;5.57;;;6.30;99.90;;;;;;5047080;28;20192;-61
2021/11/08 01:19:53;;;;;;;33.67;5.60;;;6.20;99.90;;;;;;5050967;28;20242;-61
2021/11/08 01:22:22;;;;;;;27.10;4.90;;;6.30;99.90;;;;;;5061226;28;20219;-61
2021/11/08 01:24:54;;;;;;;15.80;4.57;;;6.30;99.90;;;;;;5076100;28;20201;-61
2021/11/08 01:27:25;;;;;;;23.77;5.47;;;6.30;99.90;;;;;;5066723;28;20706;-61
2021/11/08 01:29:54;;;;;;;19.67;5.10;;;6.30;99.90;;;;;;5045722;28;20192;-61
2021/11/08 01:32:22;;;;;;;21.53;5.00;;;6.20;99.90;;;;;;5046866;28;20261;-61
2021/11/08 01:34:50;;;;;;;17.97;4.97;;;6.30;99.90;;;;;;5083177;28;20735;-61
2021/11/08 01:37:20;;;;;;;27.00;5.10;;;6.20;99.90;;;;;;5062859;28;20235;-61
2021/11/08 01:39:49;;;;;;;25.97;5.17;;;6.10;99.90;;;;;;5068032;28;20223;-61
2021/11/08 01:42:17;;;;;;;20.00;4.90;;;6.00;99.90;;;;;;5064847;28;20276;-61
2021/11/08 01:44:46;;;;;;;22.07;4.90;;;5.90;99.90;;;;;;5067262;28;20228;-61
2021/11/08 01:47:14;;;;;;;27.47;4.97;;;5.80;99.90;;;;;;5042300;28;20180;-61
2021/11/08 01:49:42;;;;;;;17.40;4.97;;;5.70;99.90;;;;;;5067979;28;20717;-61
2021/11/08 01:52:13;;;;;;;17.77;4.97;;;5.70;99.90;;;;;;5065060;28;20265;-61
2021/11/08 01:54:43;;;;;;;19.13;5.23;;;5.60;99.90;;;;;;5067806;28;20200;-61
2021/11/08 01:57:11;;;;;;;24.90;5.20;;;5.50;99.90;;;;;;5064169;28;20208;-61
2021/11/08 01:59:43;;;;;;;23.77;5.30;;;5.50;99.90;;;;;;5064401;28;20224;-61
2021/11/08 02:02:11;;;;;;;19.03;5.03;;;5.50;99.90;;;;;;5043953;28;20291;-61
2021/11/08 02:04:40;;;;;;;27.97;4.97;;;5.50;99.90;;;;;;5063800;28;20261;-61
2021/11/08 02:07:09;;;;;;;20.13;5.80;;;5.50;99.90;;;;;;5076879;28;20678;-61
2021/11/08 02:09:37;;;;;;;19.00;5.30;;;5.50;99.90;;;;;;5061474;28;20291;-61
2021/11/08 02:12:10;;;;;;;23.50;5.97;;;5.50;99.90;;;;;;5068311;28;20250;-61
2021/11/08 02:14:39;;;;;;;25.07;6.17;;;5.50;99.90;;;;;;5065618;28;20224;-61
2021/11/08 02:17:08;;;;;;;22.57;5.70;;;5.60;99.90;;;;;;5062765;28;20259;-61
2021/11/08 02:19:36;;;;;;;21.77;5.93;;;5.60;99.90;;;;;;5063024;28;20682;-61
2021/11/08 02:22:06;;;;;;;28.77;6.07;;;5.60;99.90;;;;;;5069800;28;20748;-61
2021/11/08 02:24:37;;;;;;;21.30;5.90;;;5.60;99.90;;;;;;5056410;28;20216;-61
2021/11/08 02:27:06;;;;;;;28.00;6.40;;;5.70;99.90;;;;;;5079259;28;20204;-61
2021/11/08 02:29:35;;;;;;;25.83;5.70;;;5.70;99.90;;;;;;5051433;28;20187;-61
2021/11/08 02:32:04;;;;;;;32.53;6.00;;;5.70;99.90;;;;;;5067371;28;20270;-61
2021/11/08 02:34:33;;;;;;;23.07;5.53;;;5.80;99.90;;;;;;5065362;28;20727;-61
2021/11/08 02:37:01;;;;;;;22.90;5.77;;;5.80;99.90;;;;;;5064529;28;20240;-61
2021/11/08 02:39:35;;;;;;;26.20;5.40;;;5.80;99.90;;;;;;5066123;28;20274;-61
2021/11/08 02:42:06;;;;;;;28.20;5.53;;;5.80;99.90;;;;;;5054159;28;20694;-61
2021/11/08 02:44:34;;;;;;;19.23;5.30;;;5.80;99.90;;;;;;5068085;28;20200;-61
2021/11/08 02:47:03;;;;;;;27.40;4.87;;;5.80;99.90;;;;;;5041861;28;20620;-61
2021/11/08 02:49:34;;;;;;;20.87;4.97;;;5.80;99.90;;;;;;5063535;28;20224;-61
2021/11/08 02:52:05;;;;;;;31.10;5.90;;;5.80;99.90;;;;;;5048108;28;20232;-62
2021/11/08 02:54:38;;;;;;;25.80;5.53;;;5.90;99.90;;;;;;5050225;28;20663;-61
2021/11/08 02:57:07;;;;;;;18.80;4.60;;;5.80;99.90;;;;;;5045272;28;20296;-61
2021/11/08 02:59:38;;;;;;;26.50;5.80;;;5.80;99.90;;;;;;5069627;28;20698;-62
2021/11/08 03:02:08;;;;;;;26.53;5.07;;;5.80;99.90;;;;;;5059563;28;20227;-61
2021/11/08 03:04:40;;;;;;;25.00;5.43;;;5.80;99.90;;;;;;5058503;28;20196;-61
2021/11/08 03:07:10;;;;;;;24.17;4.90;;;5.80;99.90;;;;;;5063906;28;20236;-61
2021/11/08 03:09:45;;;;;;;28.57;5.60;;;5.80;99.90;;;;;;5048507;28;20798;-62
2021/11/08 03:12:15;;;;;;;21.57;4.47;;;5.80;99.90;;;;;;5063041;28;20204;-61
2021/11/08 03:14:55;;;;;;;20.23;5.27;;;5.80;99.90;;;;;;5048164;28;20257;-61
2021/11/08 03:17:26;;;;;;;22.27;5.83;;;5.80;99.90;;;;;;5024438;28;20209;-62
2021/11/08 03:19:54;;;;;;;26.63;5.83;;;5.80;99.90;;;;;;5023246;28;20225;-61
2021/11/08 03:22:29;;;;;;;26.93;5.57;;;5.80;99.90;;;;;;5019246;28;20198;-61
2021/11/08 03:25:03;;;;;;;28.70;5.70;;;5.80;99.90;;;;;;5024618;28;20247;-61
2021/11/08 03:27:43;;;;;;;21.13;5.57;;;5.90;99.90;;;;;;5020356;28;20267;-62
2021/11/08 03:30:14;;;;;;;23.90;5.43;;;5.90;99.90;;;;;;5017170;28;20193;-61
2021/11/08 03:32:44;;;;;;;20.23;5.40;;;5.90;99.90;;;;;;5026442;28;20285;-61
2021/11/08 03:35:17;;;;;;;24.53;4.93;;;5.90;99.90;;;;;;5028163;28;20275;-61
2021/11/08 03:37:46;;;;;;;22.30;5.73;;;5.80;99.90;;;;;;5029992;28;20186;-61
2021/11/08 03:40:20;;;;;;;36.63;6.47;;;5.80;99.90;;;;;;5039364;28;20269;-61
2021/11/08 03:42:49;;;;;;;23.70;5.33;;;5.90;99.90;;;;;;5028049;28;20701;-61
2021/11/08 03:45:19;;;;;;;25.13;5.67;;;5.90;99.90;;;;;;5023918;28;20684;-61
2021/11/08 03:47:47;;;;;;;21.33;4.90;;;5.80;99.90;;;;;;5025746;28;20197;-61
2021/11/08 03:50:15;;;;;;;24.23;4.67;;;5.80;99.90;;;;;;5026628;28;20232;-61
2021/11/08 03:52:45;;;;;;;27.57;5.17;;;5.80;99.90;;;;;;5051727;28;20246;-61
2021/11/08 03:55:16;;;;;;;34.93;6.10;;;5.80;99.90;;;;;;5015142;28;20264;-61
2021/11/08 03:57:46;;;;;;;24.70;5.57;;;5.80;99.90;;;;;;5023175;28;20730;-61
2021/11/08 04:00:18;;;;;;;22.17;4.70;;;5.70;99.90;;;;;;5021035;28;20279;-61
2021/11/08 04:02:49;;;;;;;28.93;4.83;;;5.70;99.90;;;;;;5028745;28;20224;-61
2021/11/08 04:05:18;;;;;;;18.13;5.00;;;5.70;99.90;;;;;;5019540;28;20692;-61
2021/11/08 04:07:48;;;;;;;22.10;4.73;;;5.60;99.90;;;;;;5017912;28;20245;-61
2021/11/08 04:10:20;;;;;;;27.10;5.67;;;5.50;99.90;;;;;;5026681;28;20197;-61
2021/11/08 04:12:51;;;;;;;25.47;5.00;;;5.50;99.90;;;;;;5022019;28;20308;-61
2021/11/08 04:15:25;;;;;;;27.00;5.27;;;5.40;99.90;;;;;;5036315;28;20308;-61
2021/11/08 04:17:53;;;;;;;19.77;5.07;;;5.30;99.90;;;;;;5079232;28;20230;-61
2021/11/08 04:20:24;;;;;;;19.73;4.60;;;5.30;99.90;;;;;;5044205;28;20280;-61
2021/11/08 04:22:56;;;;;;;28.30;4.87;;;5.30;99.90;;;;;;5040516;28;20667;-61
2021/11/08 04:25:27;;;;;;;24.97;4.83;;;5.30;99.90;;;;;;5069173;28;20211;-61
2021/11/08 04:27:56;;;;;;;26.47;5.10;;;5.20;99.90;;;;;;5072011;28;20192;-61
2021/11/08 04:30:27;;;;;;;20.57;4.53;;;5.20;99.90;;;;;;5060480;28;20267;-61
2021/11/08 04:35:46;;;;;;;23.93;4.97;;;5.40;99.90;;;;;;5048888;28;20188;-61
2021/11/08 04:41:28;;;;;;;23.57;5.30;;;5.30;99.90;;;;;;5066729;28;20215;-61
2021/11/08 04:44:07;;;;;;;29.33;6.63;;;5.40;99.90;;;;;;5066731;28;20202;-61
2021/11/08 04:47:09;;;;;;;29.93;6.30;;;5.40;99.90;;;;;;5060142;28;20285;-61
2021/11/08 04:49:53;;;;;;;26.43;5.40;;;5.40;99.90;;;;;;5062183;28;20274;-61
2021/11/08 04:52:35;;;;;;;24.93;5.73;;;5.40;99.90;;;;;;5054915;28;20205;-61
2021/11/08 04:55:09;;;;;;;25.00;5.23;;;5.40;99.90;;;;;;5045316;28;20196;-61
2021/11/08 04:57:56;;;;;;;20.20;5.23;;;5.30;99.90;;;;;;5037705;28;20244;-61
2021/11/08 05:22:55;;;;;;;21.13;5.30;;;4.80;99.90;;;;;;5067156;28;20812;-61
2021/11/08 05:30:56;;;;;;;22.57;5.30;;;4.60;99.90;;;;;;5051666;28;20869;-61
2021/11/08 05:33:25;;;;;;;27.27;5.60;;;4.60;99.90;;;;;;5061461;28;20197;-61
2021/11/08 05:35:53;;;;;;;26.93;5.57;;;4.60;99.90;;;;;;5062125;28;20721;-61
2021/11/08 05:38:22;;;;;;;25.80;6.03;;;4.80;99.90;;;;;;5046223;28;21090;-61
2021/11/08 05:40:50;;;;;;;30.87;6.37;;;4.80;99.90;;;;;;5066640;28;20306;-61
2021/11/08 05:43:18;;;;;;;27.10;5.50;;;4.90;99.90;;;;;;5066045;28;20269;-61
2021/11/08 05:45:47;;;;;;;25.20;6.00;;;4.90;99.90;;;;;;5061480;28;20227;-61
2021/11/08 05:48:17;;;;;;;20.97;5.10;;;4.80;99.90;;;;;;5079205;28;20212;-61
2021/11/08 05:50:46;;;;;;;30.37;6.10;;;4.80;99.90;;;;;;5066808;28;20196;-61
2021/11/08 05:53:14;;;;;;;30.83;6.53;;;4.70;99.90;;;;;;5065488;28;20595;-61
2021/11/08 05:55:47;;;;;;;28.50;6.47;;;4.70;99.90;;;;;;5060383;28;20200;-61
2021/11/08 05:58:30;;;;;;;20.10;6.13;;;4.70;99.90;;;;;;5068583;28;20317;-61
2021/11/08 06:51:11;;;;;;;28.63;6.47;;;5.10;99.90;;;;;;5063315;28;20254;-61
2021/11/08 06:53:45;;;;;;;30.13;6.97;;;5.00;99.90;;;;;;5062693;28;20634;-61
2021/11/08 06:56:13;;;;;;;15.30;5.90;;;5.00;99.90;;;;;;5075345;28;20315;-61
2021/11/08 06:58:42;;;;;;;21.60;5.97;;;4.90;99.90;;;;;;5060838;28;20224;-61
2021/11/08 07:01:10;;;;;;;27.90;6.53;;;4.80;99.90;;;;;;5065471;28;20291;-61
2021/11/08 07:03:39;;;;;;;28.40;7.50;;;4.80;99.90;;;;;;5050847;28;20659;-61
2021/11/08 07:06:07;;;;;;;21.00;6.37;;;4.80;99.90;;;;;;5069142;28;20592;-61
2021/11/08 07:08:36;;;;;;;22.27;6.60;;;4.80;99.90;;;;;;5066020;28;20253;-61
2021/11/08 07:11:06;;;;;;;25.57;6.77;;;4.80;99.90;;;;;;5046912;28;20205;-61
2021/11/08 07:13:34;;;;;;;20.53;6.73;;;4.80;99.90;;;;;;5052847;28;20210;-61
2021/11/08 07:16:03;;;;;;;27.60;7.10;;;4.80;99.90;;;;;;5036958;28;20320;-61
2021/11/08 07:18:31;;;;;;;19.87;6.37;;;4.80;99.90;;;;;;5023914;28;20229;-61
2021/11/08 07:21:00;;;;;;;22.20;6.70;;;4.80;99.90;;;;;;5019299;28;20656;-61
2021/11/08 07:23:28;;;;;;;33.13;6.63;;;4.80;99.90;;;;;;5028683;28;20202;-61
2021/11/08 07:26:01;;;;;;;24.83;6.90;;;4.80;99.90;;;;;;5027469;28;20706;-61
2021/11/08 07:28:31;;;;;;;25.33;7.10;;;4.80;99.90;;;;;;5026911;28;20750;-61
2021/11/08 07:31:00;;;;;;;21.57;7.17;;;4.80;99.90;;;;;;5030163;28;20206;-62
2021/11/08 07:33:30;;;;;;;20.57;7.50;;;4.90;99.90;;;;;;5025148;28;20668;-61
2021/11/08 07:35:59;;;;;;;25.53;7.90;;;5.00;99.90;;;;;;5023624;28;20708;-61
2021/11/08 07:38:31;;;;;;;37.30;9.43;;;5.10;99.90;;;;;;5027466;28;20685;-62
2021/11/08 07:40:59;;;;;;;33.37;8.30;;;5.20;99.90;;;;;;5023802;28;20252;-61
2021/11/08 07:43:28;;;;;;;25.70;8.10;;;5.30;99.90;;;;;;5027265;28;20663;-61
2021/11/08 07:45:58;;;;;;;40.90;9.47;;;5.40;99.90;;;;;;5016128;28;20225;-62
2021/11/08 07:48:26;;;;;;;34.47;8.60;;;5.50;99.90;;;;;;5020943;28;20280;-61
2021/11/08 07:50:54;;;;;;;28.87;8.80;;;5.50;99.90;;;;;;5024060;28;20241;-61
2021/11/08 07:53:23;;;;;;;36.10;8.17;;;5.60;99.90;;;;;;5023279;28;20715;-61
2021/11/08 07:55:52;;;;;;;36.80;9.30;;;5.60;99.90;;;;;;5010524;28;20483;-62
2021/11/08 07:58:20;;;;;;;29.10;9.67;;;5.70;99.90;;;;;;5014395;28;20212;-62
2021/11/08 08:00:49;;;;;;;34.40;9.27;;;5.80;99.90;;;;;;5019211;28;20210;-61
2021/11/08 08:03:23;;;;;;;27.27;9.77;;;5.90;99.90;;;;;;5020422;28;20237;-61
2021/11/08 08:05:52;;;;;;;116.20;50.57;;;6.00;99.90;;;;;;5023092;28;20695;-62
2021/11/08 08:08:21;;;;;;;69.07;23.20;;;6.10;99.90;;;;;;5021272;28;20763;-61
2021/11/08 08:10:51;;;;;;;55.43;12.43;;;6.20;99.90;;;;;;5051798;28;20205;-61
2021/11/08 08:13:24;;;;;;;52.73;21.23;;;6.20;99.90;;;;;;5017854;28;20673;-62
2021/11/08 08:15:54;;;;;;;89.97;39.43;;;6.30;99.90;;;;;;5023998;28;20236;-61
2021/11/08 08:18:25;;;;;;;167.43;83.17;;;6.40;99.90;;;;;;5025276;28;20213;-61
2021/11/08 08:20:53;;;;;;;36.60;13.10;;;6.50;99.90;;;;;;5022850;28;20595;-61
2021/11/08 08:23:22;;;;;;;35.40;13.50;;;6.70;99.90;;;;;;5018063;28;20253;-61
2021/11/08 08:25:51;;;;;;;60.07;31.17;;;6.70;99.90;;;;;;5023258;28;20206;-61
2021/11/08 08:28:20;;;;;;;78.60;44.33;;;6.80;99.90;;;;;;5026337;28;20684;-62
2021/11/08 08:30:48;;;;;;;51.30;25.57;;;6.80;99.90;;;;;;5025246;28;20209;-61
2021/11/08 08:33:18;;;;;;;43.60;17.63;;;6.90;99.90;;;;;;5017065;28;20202;-62
2021/11/08 08:35:48;;;;;;;49.20;27.03;;;7.10;99.90;;;;;;5024631;28;20251;-61
2021/11/08 08:38:18;;;;;;;57.43;28.93;;;7.20;99.90;;;;;;5028950;28;20194;-61
2021/11/08 08:40:49;;;;;;;46.63;21.43;;;7.30;99.90;;;;;;5022998;28;20221;-61
2021/11/08 08:43:19;;;;;;;31.20;11.53;;;7.30;99.90;;;;;;5024805;28;20639;-61
2021/11/08 08:45:48;;;;;;;24.23;8.27;;;7.40;99.90;;;;;;5024610;28;20732;-62
2021/11/08 08:48:17;;;;;;;29.40;9.17;;;7.50;99.90;;;;;;5024656;28;20201;-61
2021/11/08 08:50:46;;;;;;;29.10;8.37;;;7.60;99.90;;;;;;5020813;28;20221;-62
2021/11/08 08:53:16;;;;;;;27.47;8.23;;;7.80;99.90;;;;;;5019226;28;20197;-61
2021/11/08 08:55:45;;;;;;;24.57;8.10;;;7.80;99.90;;;;;;5023936;28;20205;-62
2021/11/08 08:58:14;;;;;;;27.27;8.33;;;7.90;99.90;;;;;;5023622;28;20256;-62
2021/11/08 09:00:47;;;;;;;32.90;7.93;;;8.00;99.90;;;;;;5022541;28;20255;-61
2021/11/08 09:03:16;;;;;;;23.40;7.73;;;8.10;99.90;;;;;;5022703;28;20278;-62
2021/11/08 09:05:45;;;;;;;26.67;7.80;;;8.30;99.90;;;;;;5024341;28;21417;-61
2021/11/08 09:08:16;;;;;;;26.33;8.77;;;8.50;99.90;;;;;;5021144;28;20190;-62
2021/11/08 09:10:45;;;;;;;16.33;7.40;;;8.60;99.90;;;;;;5015301;28;20229;-61
2021/11/08 09:13:15;;;;;;;26.37;8.07;;;8.80;99.90;;;;;;5022745;28;20652;-62
2021/11/08 09:15:45;;;;;;;21.73;7.67;;;9.00;99.90;;;;;;5028478;28;20248;-62
2021/11/08 09:18:16;;;;;;;21.07;7.67;;;9.10;99.90;;;;;;5024561;28;20214;-62
2021/11/08 09:20:45;;;;;;;24.73;8.30;;;9.30;99.90;;;;;;5038987;28;20213;-61
2021/11/08 09:23:15;;;;;;;19.97;7.63;;;9.40;99.90;;;;;;5026591;28;20213;-62
2021/11/08 09:25:44;;;;;;;21.07;7.70;;;9.50;99.90;;;;;;5036244;28;20296;-62
2021/11/08 09:28:13;;;;;;;25.27;7.10;;;9.60;99.90;;;;;;5023576;28;20201;-62
2021/11/08 09:30:44;;;;;;;24.30;7.30;;;9.70;99.90;;;;;;5025294;28;20211;-62
2021/11/08 09:33:14;;;;;;;23.53;7.03;;;9.70;99.90;;;;;;5018977;28;20615;-62
2021/11/08 09:35:48;;;;;;;21.40;7.00;;;9.70;99.90;;;;;;5013849;28;20218;-62
2021/11/08 09:38:20;;;;;;;26.27;6.87;;;9.70;99.90;;;;;;5024680;28;20210;-61
2021/11/08 09:40:49;;;;;;;25.00;7.00;;;9.80;99.90;;;;;;5024030;28;20194;-61
2021/11/08 09:43:20;;;;;;;23.43;7.27;;;9.80;99.90;;;;;;5021013;28;20248;-62
2021/11/08 09:45:48;;;;;;;25.00;7.10;;;9.90;99.90;;;;;;5023928;28;20598;-62
2021/11/08 09:48:18;;;;;;;24.27;7.50;;;10.00;99.90;;;;;;5043609;28;20204;-62
2021/11/08 09:50:49;;;;;;;26.90;6.80;;;10.00;99.90;;;;;;5031680;28;20197;-62
2021/11/08 09:53:19;;;;;;;22.87;6.63;;;10.00;99.90;;;;;;5024080;28;20201;-62
2021/11/08 09:55:48;;;;;;;22.70;6.73;;;10.10;99.90;;;;;;5024689;28;20197;-62
2021/11/08 09:58:17;;;;;;;28.07;6.17;;;10.10;99.90;;;;;;5025438;28;20198;-62
2021/11/08 10:00:52;;;;;;;23.57;6.60;;;10.20;99.90;;;;;;5026006;28;20208;-62
2021/11/08 10:03:24;;;;;;;24.80;7.10;;;10.30;99.90;;;;;;5026007;28;20552;-62
2021/11/08 10:05:55;;;;;;;23.00;6.93;;;10.40;99.90;;;;;;5027508;28;20201;-62
2021/11/08 10:08:27;;;;;;;23.73;8.17;;;10.50;99.90;;;;;;5028397;28;20285;-62
2021/11/08 10:10:58;;;;;;;26.27;7.07;;;10.60;99.90;;;;;;5027587;28;20197;-62
2021/11/08 10:13:30;;;;;;;23.07;6.60;;;10.60;99.90;;;;;;5023750;28;20197;-62
2021/11/08 10:16:02;;;;;;;21.27;6.77;;;10.60;99.90;;;;;;5043312;28;20319;-62
2021/11/08 10:18:31;;;;;;;20.23;6.20;;;10.60;99.90;;;;;;5064949;28;20688;-62
2021/11/08 10:21:08;;;;;;;21.03;6.57;;;10.60;99.90;;;;;;5067328;28;20207;-62
2021/11/08 10:23:40;;;;;;;21.53;6.40;;;10.60;99.90;;;;;;5042155;28;20213;-62
2021/11/08 10:26:11;;;;;;;22.23;6.40;;;10.70;99.90;;;;;;5069690;28;20200;-62
2021/11/08 10:28:41;;;;;;;23.83;7.47;;;10.80;99.90;;;;;;5068428;28;20210;-62
2021/11/08 10:31:12;;;;;;;17.87;6.00;;;10.80;99.90;;;;;;5063413;28;20215;-62
2021/11/08 10:33:42;;;;;;;28.67;6.80;;;10.90;99.90;;;;;;5065167;28;20830;-62
2021/11/08 10:36:13;;;;;;;26.03;6.27;;;11.00;99.90;;;;;;5070248;28;20719;-62
2021/11/08 10:38:49;;;;;;;20.37;5.53;;;11.10;99.90;;;;;;5068858;28;20196;-62
2021/11/08 10:41:19;;;;;;;24.97;6.03;;;11.30;99.90;;;;;;5061364;28;20670;-62
2021/11/08 10:43:50;;;;;;;19.47;6.77;;;11.50;99.90;;;;;;5049388;28;20208;-62
2021/11/08 10:46:25;;;;;;;23.90;5.87;;;11.60;99.90;;;;;;5071457;28;20671;-62
2021/11/08 10:48:56;;;;;;;25.93;5.53;;;11.80;99.90;;;;;;5066977;28;20203;-62
2021/11/08 10:51:28;;;;;;;19.83;6.07;;;11.90;99.90;;;;;;5060938;28;20212;-62
2021/11/08 10:54:01;;;;;;;18.43;5.67;;;11.80;99.90;;;;;;5051917;28;20871;-62
2021/11/08 10:56:34;;;;;;;19.07;6.30;;;11.80;99.90;;;;;;5068547;28;20586;-62
2021/11/08 10:59:08;;;;;;;27.10;7.60;;;11.90;99.90;;;;;;5063345;28;20208;-62
2021/11/08 11:01:42;;;;;;;19.57;6.23;;;12.10;99.90;;;;;;5058970;28;20204;-62
2021/11/08 11:04:11;;;;;;;22.90;5.93;;;12.20;99.90;;;;;;5062153;28;20211;-62
2021/11/08 11:06:42;;;;;;;14.70;5.30;;;12.20;99.90;;;;;;5060900;28;20212;-62
2021/11/08 11:09:15;;;;;;;20.53;5.73;;;12.20;99.90;;;;;;5042928;28;20199;-62
2021/11/08 11:11:44;;;;;;;18.03;5.03;;;12.30;99.90;;;;;;5063368;28;20220;-62
2021/11/08 11:14:13;;;;;;;21.37;5.53;;;12.50;99.90;;;;;;5063431;28;20271;-62
2021/11/08 11:16:45;;;;;;;19.00;5.53;;;12.50;99.90;;;;;;5060557;28;20239;-62
2021/11/08 11:19:17;;;;;;;22.27;5.60;;;12.60;99.90;;;;;;5064942;28;20208;-62
2021/11/08 11:21:57;;;;;;;22.17;5.50;;;12.70;99.90;;;;;;5063455;28;20276;-62
2021/11/08 11:24:41;;;;;;;22.57;5.27;;;12.80;99.90;;;;;;5061645;28;20220;-63
2021/11/08 11:27:13;;;;;;;16.00;4.63;;;13.00;99.90;;;;;;5063858;28;20205;-62
2021/11/08 11:29:42;;;;;;;17.40;4.73;;;12.90;99.90;;;;;;5064511;28;20211;-62
2021/11/08 11:32:24;;;;;;;17.57;5.30;;;12.70;99.90;;;;;;5058575;28;20204;-62
2021/11/08 11:34:53;;;;;;;15.90;4.33;;;12.50;99.90;;;;;;5073116;28;20192;-62
2021/11/08 11:37:24;;;;;;;20.27;4.20;;;12.30;99.90;;;;;;5063821;28;20204;-62
2021/11/08 11:40:08;;;;;;;15.63;4.03;;;12.20;99.90;;;;;;5061493;28;20211;-62
2021/11/08 11:42:46;;;;;;;14.97;4.93;;;12.10;99.90;;;;;;5072435;28;20203;-62
2021/11/08 11:45:15;;;;;;;13.07;4.40;;;12.20;99.90;;;;;;5064868;28;20285;-62
2021/11/08 11:47:45;;;;;;;19.47;4.73;;;12.30;99.90;;;;;;5058685;28;20199;-62
2021/11/08 11:50:13;;;;;;;21.20;5.13;;;12.20;99.90;;;;;;5064891;28;20196;-62
2021/11/08 11:52:43;;;;;;;23.23;5.93;;;12.20;99.90;;;;;;5028646;28;20203;-62
2021/11/08 11:55:13;;;;;;;27.00;5.70;;;12.40;99.90;;;;;;5058546;28;20283;-62
2021/11/08 11:57:45;;;;;;;24.13;5.60;;;12.50;99.90;;;;;;5061627;28;20958;-62
2021/11/08 12:00:15;;;;;;;21.47;4.83;;;12.80;99.90;;;;;;5062562;28;20233;-62
2021/11/08 12:03:05;;;;;;;13.60;4.43;;;13.20;99.90;;;;;;5056623;28;20207;-62
2021/11/08 12:05:36;;;;;;;16.70;5.13;;;13.70;99.90;;;;;;5064371;28;20236;-62
2021/11/08 12:08:08;;;;;;;22.37;5.00;;;13.90;99.90;;;;;;5052825;28;20202;-63
2021/11/08 12:10:52;;;;;;;19.20;5.00;;;14.00;99.90;;;;;;5032428;28;20223;-63
2021/11/08 12:13:23;;;;;;;13.80;4.90;;;14.10;99.90;;;;;;5056453;28;20207;-63
2021/11/08 12:15:52;;;;;;;22.07;4.60;;;14.40;99.90;;;;;;5064700;28;20238;-63
2021/11/08 12:18:22;;;;;;;23.33;4.83;;;14.60;99.90;;;;;;5049503;28;20191;-63
2021/11/08 12:20:53;;;;;;;12.90;4.50;;;14.80;99.90;;;;;;5060254;28;20199;-63
2021/11/08 12:23:24;;;;;;;22.23;4.40;;;15.00;99.90;;;;;;5047284;28;20245;-63
2021/11/08 12:25:54;;;;;;;11.63;3.90;;;15.10;99.90;;;;;;5067306;28;20289;-63
2021/11/08 12:28:24;;;;;;;10.63;4.37;;;14.80;99.90;;;;;;5049622;28;20724;-63
2021/11/08 12:30:55;;;;;;;14.83;4.33;;;14.50;99.90;;;;;;5048749;28;20552;-62
2021/11/08 12:33:31;;;;;;;16.73;4.50;;;14.10;99.90;;;;;;5036443;28;20221;-62
2021/11/08 12:36:12;;;;;;;16.97;4.50;;;13.70;99.90;;;;;;5055541;28;20588;-62
2021/11/08 12:38:44;;;;;;;17.20;4.60;;;13.30;99.90;;;;;;5064782;28;20207;-62
2021/11/08 12:41:20;;;;;;;18.70;4.83;;;13.00;99.90;;;;;;5046773;28;20206;-62
2021/11/08 12:43:50;;;;;;;18.57;5.00;;;13.00;99.90;;;;;;5063204;28;20284;-62
2021/11/08 12:46:21;;;;;;;15.47;4.93;;;13.20;99.90;;;;;;5063335;28;20270;-62
2021/11/08 12:48:51;;;;;;;17.67;4.40;;;13.40;99.90;;;;;;5061378;28;20230;-62
2021/11/08 12:51:23;;;;;;;15.67;5.03;;;13.60;99.90;;;;;;5066770;28;20262;-62
2021/11/08 12:54:03;;;;;;;13.90;4.47;;;13.70;99.90;;;;;;5060623;28;20207;-63
2021/11/08 12:56:40;;;;;;;17.60;4.53;;;13.80;99.90;;;;;;5060683;28;20210;-63
2021/11/08 12:59:15;;;;;;;15.40;4.63;;;13.80;99.90;;;;;;5065126;28;20278;-62
2021/11/08 13:01:49;;;;;;;17.77;4.47;;;13.80;99.90;;;;;;5044225;28;20194;-62
2021/11/08 13:04:18;;;;;;;18.77;4.47;;;13.70;99.90;;;;;;5046518;28;20285;-62
2021/11/08 13:06:48;;;;;;;14.63;4.87;;;13.60;99.90;;;;;;5068418;28;20218;-62
2021/11/08 13:09:22;;;;;;;17.57;4.90;;;13.70;99.90;;;;;;5064882;28;20308;-65
2021/11/08 13:11:54;;;;;;;19.57;4.73;;;13.80;99.90;;;;;;5043742;28;20203;-63
2021/11/08 13:14:29;;;;;;;11.13;4.60;;;13.70;99.90;;;;;;5071297;28;20192;-62
2021/11/08 13:17:06;;;;;;;14.33;4.60;;;13.70;99.90;;;;;;5067740;28;20658;-62
2021/11/08 13:19:40;;;;;;;11.17;4.33;;;13.40;99.90;;;;;;5054470;28;20200;-62
2021/11/08 13:22:18;;;;;;;16.93;4.77;;;13.30;99.90;;;;;;5070744;28;20211;-62
2021/11/08 13:24:55;;;;;;;16.23;4.43;;;13.30;99.90;;;;;;5069497;28;20238;-62
2021/11/08 13:27:50;;;;;;;18.23;4.37;;;13.40;99.90;;;;;;5063973;28;20234;-63
2021/11/08 13:30:24;;;;;;;14.03;4.27;;;13.60;99.90;;;;;;5069616;28;20237;-62
2021/11/08 13:32:53;;;;;;;17.00;4.50;;;13.50;99.90;;;;;;5068665;28;20218;-62
2021/11/08 13:35:26;;;;;;;16.87;4.60;;;13.50;99.90;;;;;;5068508;28;20220;-62
2021/11/08 13:38:05;;;;;;;20.87;4.20;;;13.60;99.90;;;;;;5051023;28;21685;-62
2021/11/08 13:40:36;;;;;;;17.57;4.47;;;13.60;99.90;;;;;;5064341;28;20196;-62
2021/11/08 13:43:14;;;;;;;14.23;3.60;;;13.50;99.90;;;;;;5070542;28;20279;-62
2021/11/08 13:45:52;;;;;;;17.60;3.97;;;13.50;99.90;;;;;;5078575;28;20219;-62
2021/11/08 13:48:26;;;;;;;13.60;4.13;;;13.50;99.90;;;;;;5069771;28;20195;-61
2021/11/08 13:50:57;;;;;;;13.23;3.30;;;13.40;99.90;;;;;;5069679;28;20203;-62
2021/11/08 13:53:29;;;;;;;14.70;4.13;;;13.40;99.90;;;;;;5045936;28;20548;-61
2021/11/08 13:55:59;;;;;;;13.63;3.80;;;13.50;99.90;;;;;;5066724;28;20643;-61
2021/11/08 13:58:30;;;;;;;16.57;4.20;;;13.50;99.90;;;;;;5066813;28;20200;-61
2021/11/08 14:01:08;;;;;;;12.10;3.67;;;13.50;99.90;;;;;;5084376;28;20596;-62
2021/11/08 14:03:41;;;;;;;12.67;4.00;;;13.60;99.90;;;;;;5053215;28;20187;-62
2021/11/08 14:06:12;;;;;;;13.03;3.80;;;13.60;99.90;;;;;;5068643;28;20694;-61
2021/11/08 14:08:46;;;;;;;17.03;4.23;;;13.60;99.90;;;;;;5066869;28;20200;-61
2021/11/08 14:11:24;;;;;;;18.30;4.33;;;13.50;99.90;;;;;;5066099;28;20227;-62
2021/11/08 14:13:54;;;;;;;12.73;4.00;;;13.40;99.90;;;;;;5050212;28;20199;-62
2021/11/08 14:16:23;;;;;;;12.20;4.00;;;13.40;99.90;;;;;;5071754;28;20773;-61
2021/11/08 14:18:54;;;;;;;12.03;3.77;;;13.30;99.90;;;;;;5064836;28;20194;-62
2021/11/08 14:21:24;;;;;;;15.17;4.27;;;13.30;99.90;;;;;;5066522;28;20197;-62
2021/11/08 14:23:58;;;;;;;10.20;3.87;;;13.20;99.90;;;;;;5068336;28;20200;-62
2021/11/08 14:26:27;;;;;;;17.33;4.27;;;13.10;99.90;;;;;;5066523;28;20227;-61
2021/11/08 14:28:58;;;;;;;17.13;4.07;;;13.00;99.90;;;;;;5052090;28;20227;-62